createdAt,value
2018-07-23T00:07:33.972Z,15.83
2018-07-23T00:22:38.049Z,10.40
2018-07-23T00:37:42.024Z,15.43
2018-07-23T00:52:46.119Z,12.10
2018-07-23T01:07:50.087Z,15.40
2018-07-23T01:22:53.955Z,13.87
2018-07-23T01:37:57.967Z,15.60
2018-07-23T01:53:02.178Z,10.60
2018-07-23T02:08:06.171Z,13.23
2018-07-23T02:23:10.379Z,15.90
2018-07-23T02:38:14.198Z,14.50
2018-07-23T02:53:18.043Z,12.50
2018-07-23T03:08:21.936Z,11.33
2018-07-23T03:23:25.852Z,12.00
2018-07-23T03:38:29.716Z,11.87
2018-07-23T03:53:33.923Z,8.87
2018-07-23T04:08:38.272Z,13.20
2018-07-23T04:23:42.123Z,9.37
2018-07-23T04:38:46.101Z,6.53
2018-07-23T04:53:49.960Z,16.33
2018-07-23T05:08:53.921Z,9.43
2018-07-23T05:23:57.851Z,11.20
2018-07-23T05:39:01.866Z,7.23
2018-07-23T05:54:06.591Z,7.17
2018-07-23T06:09:10.970Z,5.87
2018-07-23T06:24:15.095Z,3.53
2018-07-23T06:39:19.171Z,9.47
2018-07-23T06:54:23.052Z,7.43
2018-07-23T07:09:27.537Z,6.97
2018-07-23T07:24:31.362Z,4.50
2018-07-23T07:39:35.189Z,4.45
2018-07-23T07:54:39.256Z,4.80
2018-07-23T08:09:43.267Z,4.40
2018-07-23T08:24:47.143Z,7.70
2018-07-23T08:39:51.209Z,4.95
2018-07-23T08:54:55.103Z,5.97
2018-07-23T09:09:59.349Z,4.12
2018-07-23T09:25:04.251Z,5.83
2018-07-23T09:40:08.649Z,4.08
2018-07-23T09:55:12.649Z,6.90
2018-07-23T10:10:16.958Z,8.10
2018-07-23T10:25:21.054Z,13.33
2018-07-23T10:40:25.304Z,11.97
2018-07-23T10:55:29.535Z,10.50
2018-07-23T11:10:33.540Z,7.83
2018-07-23T11:25:39.635Z,7.47
2018-07-23T11:40:41.705Z,8.73
2018-07-23T11:55:45.881Z,7.93
2018-07-23T12:10:49.953Z,8.10
2018-07-23T12:25:53.921Z,6.63
2018-07-23T12:40:57.895Z,9.97
2018-07-23T12:56:01.763Z,6.77
2018-07-23T13:11:05.716Z,6.83
2018-07-23T13:26:09.976Z,25.83
2018-07-23T13:41:14.272Z,13.60
2018-07-23T13:56:18.393Z,8.90
2018-07-23T14:11:22.672Z,8.83
2018-07-23T14:26:27.075Z,7.37
2018-07-23T14:41:31.022Z,10.73
2018-07-23T14:56:34.990Z,11.47
2018-07-23T15:11:38.971Z,16.07
2018-07-23T15:26:43.654Z,11.67
2018-07-23T15:41:48.049Z,15.17
2018-07-23T15:56:51.967Z,18.93
2018-07-23T16:11:55.937Z,13.43
2018-07-23T16:27:00.098Z,12.40
2018-07-23T16:42:04.137Z,14.63
2018-07-23T16:57:08.166Z,20.23
2018-07-23T17:12:12.450Z,14.20
2018-07-23T17:27:16.346Z,22.57
2018-07-23T17:42:20.272Z,22.57
2018-07-23T17:57:24.331Z,29.77
2018-07-23T18:12:28.292Z,20.90
2018-07-23T18:27:32.513Z,20.07
2018-07-23T18:42:36.608Z,19.80
2018-07-23T18:57:40.819Z,18.00
2018-07-23T19:12:44.865Z,19.43
2018-07-23T19:27:49.172Z,19.37
2018-07-23T19:42:53.113Z,18.70
2018-07-23T19:57:56.549Z,27.20
2018-07-23T20:13:00.849Z,27.63
2018-07-23T20:28:04.819Z,26.50
2018-07-23T20:43:08.773Z,36.27
2018-07-23T20:58:12.929Z,30.43
2018-07-23T21:13:17.353Z,35.50
2018-07-23T21:28:21.468Z,31.63
2018-07-23T21:43:25.751Z,31.17
2018-07-23T21:58:29.729Z,27.90
2018-07-23T22:13:33.757Z,22.87
2018-07-23T22:28:37.776Z,30.03
2018-07-23T22:43:41.883Z,27.57
2018-07-23T22:58:45.744Z,27.20
2018-07-23T23:13:49.994Z,23.67
2018-07-23T23:28:53.847Z,23.57
2018-07-23T23:43:58.073Z,20.50
2018-07-23T23:59:02.127Z,18.17
